createdAt,value
2024-04-18T00:00:32.328Z,953.2100
2024-04-18T00:01:36.037Z,953.2200
2024-04-18T00:02:39.786Z,953.2300
2024-04-18T00:03:43.568Z,953.2300
2024-04-18T00:04:47.334Z,953.2300
2024-04-18T00:05:50.887Z,953.2300
2024-04-18T00:06:54.486Z,953.2200
2024-04-18T00:07:58.039Z,953.2200
2024-04-18T00:09:01.589Z,953.2100
2024-04-18T00:10:05.126Z,953.2100
2024-04-18T00:11:09.757Z,953.2000
2024-04-18T00:12:13.387Z,953.1800
2024-04-18T00:13:16.951Z,953.1800
2024-04-18T00:14:20.634Z,953.1800
2024-04-18T00:15:24.199Z,953.1900
2024-04-18T00:16:27.936Z,953.1900
2024-04-18T00:17:31.830Z,953.1900
2024-04-18T00:18:35.506Z,953.1900
2024-04-18T00:19:39.194Z,953.1800
2024-04-18T00:20:42.882Z,953.1800
2024-04-18T00:21:46.756Z,953.1700
2024-04-18T00:22:50.353Z,953.1600
2024-04-18T00:23:53.982Z,953.1500
2024-04-18T00:24:57.667Z,953.1600
2024-04-18T00:26:01.290Z,953.1700
2024-04-18T00:27:05.003Z,953.1700
2024-04-18T00:28:09.194Z,953.1700
2024-04-18T00:29:12.878Z,953.1700
2024-04-18T00:30:16.565Z,953.1600
2024-04-18T00:31:20.723Z,953.1600
2024-04-18T00:32:24.401Z,953.1700
2024-04-18T00:33:28.110Z,953.1600
2024-04-18T00:34:31.751Z,953.1500
2024-04-18T00:35:35.282Z,953.1300
2024-04-18T00:36:39.159Z,953.1200
2024-04-18T00:37:42.761Z,953.1100
2024-04-18T00:38:46.259Z,953.0800
2024-04-18T00:39:49.848Z,953.0800
2024-04-18T00:40:53.335Z,953.0800
2024-04-18T00:41:56.867Z,953.0800
2024-04-18T00:43:00.546Z,953.0700
2024-04-18T00:44:04.458Z,953.0600
2024-04-18T00:45:08.310Z,953.0700
2024-04-18T00:46:12.096Z,953.0600
2024-04-18T00:47:15.747Z,953.0600
2024-04-18T00:48:19.496Z,953.0500
2024-04-18T00:49:23.329Z,953.0400
2024-04-18T00:50:27.065Z,953.0400
2024-04-18T00:51:30.761Z,953.0300
2024-04-18T00:52:34.494Z,953.0300
2024-04-18T00:53:38.128Z,953.0100
2024-04-18T00:54:41.785Z,953.0100
2024-04-18T00:55:45.401Z,953.0000
2024-04-18T00:56:49.207Z,953.0000
2024-04-18T00:57:52.862Z,953.0000
2024-04-18T00:58:56.423Z,953.0000
2024-04-18T01:00:00.096Z,952.9800
2024-04-18T01:01:03.907Z,952.9800
2024-04-18T01:02:07.811Z,952.9700
2024-04-18T01:03:11.355Z,952.9700
2024-04-18T01:04:15.140Z,952.9600
2024-04-18T01:05:18.877Z,952.9500
2024-04-18T01:06:22.464Z,952.9500
2024-04-18T01:07:26.084Z,952.9500
2024-04-18T01:08:29.599Z,952.9400
2024-04-18T01:09:33.231Z,952.9400
2024-04-18T01:10:36.853Z,952.9300
2024-04-18T01:11:40.561Z,952.9200
2024-04-18T01:12:44.267Z,952.9200
2024-04-18T01:13:47.999Z,952.9200
2024-04-18T01:14:51.639Z,952.9300
2024-04-18T01:15:55.285Z,952.9300
2024-04-18T01:16:58.986Z,952.9100
2024-04-18T01:18:02.882Z,952.9000
2024-04-18T01:19:06.523Z,952.9100
2024-04-18T01:20:10.274Z,952.9200
2024-04-18T01:21:13.881Z,952.9200
2024-04-18T01:22:17.568Z,952.9200
2024-04-18T01:23:21.227Z,952.9100
2024-04-18T01:24:24.909Z,952.9100
2024-04-18T01:25:31.181Z,952.9100
2024-04-18T01:26:34.825Z,952.9000
2024-04-18T01:27:38.442Z,952.9000
2024-04-18T01:28:42.002Z,952.9000
2024-04-18T01:29:45.813Z,952.9000
2024-04-18T01:30:49.656Z,952.9000
2024-04-18T01:31:54.088Z,952.9200
2024-04-18T01:32:57.691Z,952.9200
2024-04-18T01:34:01.514Z,952.9100
2024-04-18T01:35:05.197Z,952.9100
2024-04-18T01:36:08.812Z,952.9100
2024-04-18T01:37:12.414Z,952.9200
2024-04-18T01:38:16.146Z,952.9100
2024-04-18T01:39:20.678Z,952.9100
2024-04-18T01:40:24.388Z,952.9100
2024-04-18T01:41:28.042Z,952.9200
2024-04-18T01:42:31.697Z,952.9100
2024-04-18T01:43:35.295Z,952.9100
2024-04-18T01:44:38.946Z,952.9000
2024-04-18T01:45:42.671Z,952.9000
2024-04-18T01:46:46.384Z,952.9000
2024-04-18T01:47:50.150Z,952.9100
2024-04-18T01:48:53.883Z,952.9100
2024-04-18T01:49:58.169Z,952.9100
2024-04-18T01:51:01.869Z,952.9000
2024-04-18T01:52:05.480Z,952.9200
2024-04-18T01:53:09.222Z,952.9100
2024-04-18T01:54:12.834Z,952.9200
2024-04-18T01:55:16.363Z,952.9200
2024-04-18T01:56:19.916Z,952.9200
2024-04-18T01:57:23.506Z,952.9200
2024-04-18T01:58:27.158Z,952.9200
2024-04-18T01:59:30.845Z,952.9200
2024-04-18T02:00:34.665Z,952.9000
2024-04-18T02:01:38.394Z,952.9000
2024-04-18T02:02:41.985Z,952.9000
2024-04-18T02:03:45.793Z,952.8900
2024-04-18T02:04:49.584Z,952.8900
2024-04-18T02:05:53.188Z,952.8900
2024-04-18T02:06:56.810Z,952.8800
2024-04-18T02:08:00.490Z,952.8800
2024-04-18T02:09:04.191Z,952.8900
2024-04-18T02:10:07.809Z,952.8800
2024-04-18T02:11:11.513Z,952.8900
2024-04-18T02:12:15.272Z,952.8900
2024-04-18T02:13:18.972Z,952.9000
2024-04-18T02:14:22.758Z,952.9000
2024-04-18T02:15:26.423Z,952.9000
2024-04-18T02:16:30.133Z,952.9000
2024-04-18T02:17:34.742Z,952.9000
2024-04-18T02:18:40.268Z,952.9100
2024-04-18T02:19:43.920Z,952.9000
2024-04-18T02:20:47.512Z,952.9100
2024-04-18T02:21:51.109Z,952.9100
2024-04-18T02:22:54.670Z,952.9200
2024-04-18T02:23:58.225Z,952.9200
2024-04-18T02:25:01.802Z,952.9300
2024-04-18T02:26:05.338Z,952.9400
2024-04-18T02:27:08.942Z,952.9200
2024-04-18T02:28:12.491Z,952.9200
2024-04-18T02:29:16.127Z,952.9100
2024-04-18T02:30:20.863Z,952.9100
2024-04-18T02:31:25.707Z,952.9100
2024-04-18T02:32:29.457Z,952.9100
2024-04-18T02:33:33.298Z,952.8900
2024-04-18T02:34:36.952Z,952.9000
2024-04-18T02:35:40.618Z,952.8900
2024-04-18T02:36:44.385Z,952.8800
2024-04-18T02:37:48.177Z,952.8800
2024-04-18T02:38:54.706Z,952.8800
2024-04-18T02:39:58.437Z,952.8700
2024-04-18T02:41:02.149Z,952.8800
2024-04-18T02:42:05.820Z,952.8800
2024-04-18T02:43:09.518Z,952.8700
2024-04-18T02:44:13.221Z,952.8800
2024-04-18T02:45:16.818Z,952.8800
2024-04-18T02:46:21.099Z,952.8900
2024-04-18T02:47:24.702Z,952.8900
2024-04-18T02:48:28.445Z,952.8900
2024-04-18T02:49:32.151Z,952.8900
2024-04-18T02:50:35.719Z,952.9100
2024-04-18T02:51:39.265Z,952.9100
2024-04-18T02:52:42.850Z,952.9000
2024-04-18T02:53:46.398Z,952.9000
2024-04-18T02:54:50.107Z,952.8900
2024-04-18T02:55:53.723Z,952.9000
2024-04-18T02:56:57.306Z,952.9000
2024-04-18T02:58:01.021Z,952.9000
2024-04-18T02:59:04.650Z,952.9000
2024-04-18T03:00:09.803Z,952.9000
2024-04-18T03:01:13.474Z,952.9100
2024-04-18T03:02:17.230Z,952.9200
2024-04-18T03:03:20.857Z,952.9200
2024-04-18T03:04:24.543Z,952.9200
2024-04-18T03:05:28.191Z,952.9200
2024-04-18T03:06:31.864Z,952.9300
2024-04-18T03:07:35.495Z,952.9400
2024-04-18T03:08:39.756Z,952.9400
2024-04-18T03:09:43.543Z,952.9500
2024-04-18T03:10:47.222Z,952.9500
2024-04-18T03:11:50.760Z,952.9600
2024-04-18T03:12:57.115Z,952.9600
2024-04-18T03:14:00.645Z,952.9500
2024-04-18T03:15:04.442Z,952.9500
2024-04-18T03:16:08.041Z,952.9600
2024-04-18T03:17:11.760Z,952.9500
2024-04-18T03:18:15.626Z,952.9600
2024-04-18T03:19:19.576Z,952.9600
2024-04-18T03:20:25.289Z,952.9700
2024-04-18T03:21:28.993Z,952.9700
2024-04-18T03:22:32.581Z,953.0000
2024-04-18T03:23:36.118Z,953.0000
2024-04-18T03:24:39.686Z,952.9900
2024-04-18T03:25:43.685Z,952.9800
2024-04-18T03:26:48.147Z,953.0000
2024-04-18T03:27:52.780Z,953.0100
2024-04-18T03:28:56.452Z,953.0000
2024-04-18T03:30:00.103Z,953.0000
2024-04-18T03:31:04.827Z,953.0000
2024-04-18T03:32:09.258Z,953.0100
2024-04-18T03:33:13.816Z,953.0100
2024-04-18T03:34:17.556Z,953.0100
2024-04-18T03:35:21.288Z,953.0100
2024-04-18T03:36:24.882Z,953.0000
2024-04-18T03:37:28.407Z,952.9800
2024-04-18T03:38:32.000Z,952.9800
2024-04-18T03:39:35.665Z,952.9800
2024-04-18T03:40:39.666Z,952.9800
2024-04-18T03:41:44.209Z,952.9800
2024-04-18T03:42:47.930Z,952.9800
2024-04-18T03:43:53.583Z,952.9800
2024-04-18T03:44:58.303Z,952.9800
2024-04-18T03:46:02.029Z,952.9800
2024-04-18T03:47:05.713Z,952.9900
2024-04-18T03:48:09.373Z,953.0000
2024-04-18T03:49:13.131Z,953.0000
2024-04-18T03:50:16.646Z,952.9900
2024-04-18T03:51:20.283Z,953.0100
2024-04-18T03:52:24.659Z,953.0100
2024-04-18T03:53:28.247Z,953.0100
2024-04-18T03:54:39.843Z,953.0400
2024-04-18T03:55:42.432Z,953.0300
2024-04-18T03:56:46.099Z,953.0400
2024-04-18T03:57:49.770Z,953.0400
2024-04-18T03:58:53.433Z,953.0400
2024-04-18T03:59:56.966Z,953.0300
2024-04-18T04:01:00.817Z,953.0300
2024-04-18T04:02:04.538Z,953.0200
2024-04-18T04:03:08.125Z,953.0300
2024-04-18T04:04:11.877Z,953.0400
2024-04-18T04:05:15.597Z,953.0600
2024-04-18T04:06:19.329Z,953.0700
2024-04-18T04:07:22.966Z,953.0800
2024-04-18T04:08:26.667Z,953.0900
2024-04-18T04:09:30.454Z,953.1100
2024-04-18T04:10:34.044Z,953.1100
2024-04-18T04:11:37.747Z,953.1100
2024-04-18T04:12:41.491Z,953.1200
2024-04-18T04:13:45.083Z,953.1200
2024-04-18T04:14:48.801Z,953.1400
2024-04-18T04:15:52.703Z,953.1400
2024-04-18T04:16:56.439Z,953.1400
2024-04-18T04:18:00.093Z,953.1500
2024-04-18T04:19:03.775Z,953.1700
2024-04-18T04:20:07.504Z,953.1900
2024-04-18T04:21:11.201Z,953.2000
2024-04-18T04:22:15.808Z,953.2100
2024-04-18T04:23:19.423Z,953.2400
2024-04-18T04:24:23.114Z,953.2500
2024-04-18T04:25:26.764Z,953.2600
2024-04-18T04:26:30.551Z,953.2500
2024-04-18T04:27:34.159Z,953.2700
2024-04-18T04:28:37.808Z,953.2800
2024-04-18T04:29:41.393Z,953.2700
2024-04-18T04:30:45.106Z,953.2900
2024-04-18T04:31:48.938Z,953.2900
2024-04-18T04:32:52.664Z,953.2900
2024-04-18T04:33:57.345Z,953.3100
2024-04-18T04:35:00.971Z,953.3000
2024-04-18T04:36:04.613Z,953.3300
2024-04-18T04:37:08.267Z,953.3400
2024-04-18T04:38:11.923Z,953.3800
2024-04-18T04:39:15.655Z,953.3900
2024-04-18T04:40:19.484Z,953.3900
2024-04-18T04:41:23.053Z,953.4000
2024-04-18T04:42:26.777Z,953.4100
2024-04-18T04:43:30.373Z,953.4200
2024-04-18T04:44:34.096Z,953.4100
2024-04-18T04:45:37.840Z,953.4300
2024-04-18T04:46:41.497Z,953.4300
2024-04-18T04:47:45.182Z,953.4400
2024-04-18T04:48:48.825Z,953.4500
2024-04-18T04:49:52.424Z,953.4700
2024-04-18T04:50:56.049Z,953.5100
2024-04-18T04:51:59.640Z,953.5100
2024-04-18T04:53:03.752Z,953.5400
2024-04-18T04:54:07.506Z,953.5600
2024-04-18T04:55:11.129Z,953.5600
2024-04-18T04:56:14.719Z,953.5700
2024-04-18T04:57:18.344Z,953.5700
2024-04-18T04:58:21.947Z,953.5800
2024-04-18T04:59:25.465Z,953.5900
2024-04-18T05:00:29.173Z,953.6000
2024-04-18T05:01:32.932Z,953.6200
2024-04-18T05:02:39.191Z,953.6300
2024-04-18T05:03:43.811Z,953.6400
2024-04-18T05:04:47.626Z,953.6500
2024-04-18T05:05:51.258Z,953.6500
2024-04-18T05:06:55.016Z,953.6700
2024-04-18T05:07:58.699Z,953.6900
2024-04-18T05:09:02.415Z,953.7100
2024-04-18T05:10:06.120Z,953.7200
2024-04-18T05:11:09.840Z,953.7500
2024-04-18T05:12:13.525Z,953.7500
2024-04-18T05:13:17.218Z,953.7500
2024-04-18T05:14:20.966Z,953.7600
2024-04-18T05:15:25.208Z,953.7700
2024-04-18T05:16:28.846Z,953.7700
2024-04-18T05:17:32.349Z,953.7600
2024-04-18T05:18:35.978Z,953.7700
2024-04-18T05:19:39.681Z,953.7800
2024-04-18T05:20:43.310Z,953.7800
2024-04-18T05:21:47.013Z,953.7900
2024-04-18T05:22:50.708Z,953.8000
2024-04-18T05:23:54.223Z,953.8000
2024-04-18T05:24:57.930Z,953.8200
2024-04-18T05:26:02.348Z,953.8200
2024-04-18T05:27:06.004Z,953.8200
2024-04-18T05:28:09.699Z,953.8100
2024-04-18T05:29:13.415Z,953.8300
2024-04-18T05:30:17.110Z,953.8300
2024-04-18T05:31:21.252Z,953.8300
2024-04-18T05:32:25.077Z,953.8400
2024-04-18T05:33:28.738Z,953.8600
2024-04-18T05:34:32.743Z,953.8800
2024-04-18T05:35:36.429Z,953.8900
2024-04-18T05:36:40.205Z,953.9000
2024-04-18T05:37:43.837Z,953.9300
2024-04-18T05:38:47.520Z,953.9400
2024-04-18T05:39:51.306Z,953.9400
2024-04-18T05:40:55.189Z,953.9500
2024-04-18T05:41:58.846Z,953.9500
2024-04-18T05:43:02.503Z,953.9700
2024-04-18T05:44:06.192Z,953.9900
2024-04-18T05:45:13.158Z,953.9800
2024-04-18T05:46:16.721Z,953.9800
2024-04-18T05:47:20.483Z,954.0000
2024-04-18T05:48:24.208Z,954.0000
2024-04-18T05:49:27.818Z,954.0100
2024-04-18T05:50:31.713Z,954.0200
2024-04-18T05:51:35.395Z,954.0400
2024-04-18T05:52:39.090Z,954.0500
2024-04-18T05:53:43.296Z,954.0500
2024-04-18T05:54:47.119Z,954.0500
2024-04-18T05:55:50.811Z,954.0600
2024-04-18T05:56:54.489Z,954.0900
2024-04-18T05:57:58.244Z,954.1000
2024-04-18T05:59:01.980Z,954.1100
2024-04-18T06:00:05.645Z,954.1200
2024-04-18T06:01:10.439Z,954.1300
2024-04-18T06:02:14.124Z,954.1400
2024-04-18T06:03:17.859Z,954.1600
2024-04-18T06:04:21.539Z,954.1700
2024-04-18T06:05:25.166Z,954.1900
2024-04-18T06:06:28.978Z,954.2000
2024-04-18T06:07:32.614Z,954.2000
2024-04-18T06:08:36.325Z,954.2200
2024-04-18T06:09:42.851Z,954.2400
2024-04-18T06:10:46.530Z,954.2500
2024-04-18T06:11:50.111Z,954.2500
2024-04-18T06:12:53.780Z,954.2600
2024-04-18T06:13:57.395Z,954.2600
2024-04-18T06:15:01.075Z,954.2800
2024-04-18T06:16:04.902Z,954.2900
2024-04-18T06:17:08.523Z,954.2900
2024-04-18T06:18:12.107Z,954.3000
2024-04-18T06:19:15.669Z,954.3100
2024-04-18T06:20:19.352Z,954.3100
2024-04-18T06:21:22.970Z,954.3200
2024-04-18T06:22:26.633Z,954.3400
2024-04-18T06:23:30.286Z,954.3400
2024-04-18T06:24:34.133Z,954.3500
2024-04-18T06:25:37.880Z,954.3600
2024-04-18T06:26:41.527Z,954.3600
2024-04-18T06:27:45.321Z,954.3800
2024-04-18T06:28:48.976Z,954.3900
2024-04-18T06:29:52.672Z,954.4000
2024-04-18T06:30:56.391Z,954.4100
2024-04-18T06:32:00.257Z,954.4200
2024-04-18T06:33:04.051Z,954.4200
2024-04-18T06:34:07.977Z,954.4300
2024-04-18T06:35:11.659Z,954.4400
2024-04-18T06:36:15.439Z,954.4600
2024-04-18T06:37:19.038Z,954.4700
2024-04-18T06:38:22.610Z,954.4800
2024-04-18T06:39:27.193Z,954.4900
2024-04-18T06:40:30.834Z,954.5000
2024-04-18T06:41:34.471Z,954.5300
2024-04-18T06:42:38.068Z,954.5400
2024-04-18T06:43:41.830Z,954.5700
2024-04-18T06:44:45.649Z,954.5800
2024-04-18T06:45:49.341Z,954.5900
2024-04-18T06:47:00.385Z,954.6000
2024-04-18T06:48:02.929Z,954.6100
2024-04-18T06:49:06.690Z,954.6200
2024-04-18T06:50:10.317Z,954.6400
2024-04-18T06:51:14.728Z,954.6600
2024-04-18T06:52:18.867Z,954.6700
2024-04-18T06:53:22.507Z,954.6700
2024-04-18T06:54:26.188Z,954.6700
2024-04-18T06:55:29.831Z,954.7000
2024-04-18T06:56:33.485Z,954.7000
2024-04-18T06:57:37.305Z,954.7200
2024-04-18T06:58:42.039Z,954.7400
2024-04-18T06:59:46.233Z,954.7400
2024-04-18T07:00:50.070Z,954.7500
2024-04-18T07:01:53.660Z,954.7500
2024-04-18T07:02:57.276Z,954.7600
2024-04-18T07:04:00.980Z,954.7600
2024-04-18T07:05:04.759Z,954.7700
2024-04-18T07:06:08.472Z,954.7700
2024-04-18T07:07:12.188Z,954.7900
2024-04-18T07:08:15.871Z,954.8000
2024-04-18T07:09:19.527Z,954.8200
2024-04-18T07:10:23.228Z,954.8200
2024-04-18T07:11:26.941Z,954.8200
2024-04-18T07:12:30.872Z,954.8300
2024-04-18T07:13:35.124Z,954.8400
2024-04-18T07:14:39.821Z,954.8600
2024-04-18T07:15:43.564Z,954.8700
2024-04-18T07:16:47.696Z,954.8900
2024-04-18T07:17:51.321Z,954.9000
2024-04-18T07:18:55.368Z,954.9000
2024-04-18T07:19:59.098Z,954.9100
2024-04-18T07:21:02.643Z,954.9300
2024-04-18T07:22:06.290Z,954.9500
2024-04-18T07:23:09.871Z,954.9400
2024-04-18T07:24:13.560Z,954.9600
2024-04-18T07:25:17.211Z,954.9800
2024-04-18T07:26:20.947Z,955.0000
2024-04-18T07:27:24.751Z,955.0100
2024-04-18T07:28:28.877Z,955.0200
2024-04-18T07:29:32.511Z,955.0400
2024-04-18T07:30:36.667Z,955.0700
2024-04-18T07:31:40.260Z,955.0900
2024-04-18T07:32:45.883Z,955.1100
2024-04-18T07:33:49.678Z,955.1200
2024-04-18T07:34:53.441Z,955.1500
2024-04-18T07:35:57.274Z,955.1700
2024-04-18T07:37:00.951Z,955.1800
2024-04-18T07:38:04.584Z,955.2000
2024-04-18T07:39:08.257Z,955.2100
2024-04-18T07:40:12.800Z,955.2200
2024-04-18T07:41:16.445Z,955.2400
2024-04-18T07:42:20.162Z,955.2600
2024-04-18T07:43:23.937Z,955.2800
2024-04-18T07:44:27.634Z,955.3000
2024-04-18T07:45:31.317Z,955.3100
2024-04-18T07:46:34.979Z,955.3400
2024-04-18T07:47:38.724Z,955.3500
2024-04-18T07:48:42.534Z,955.3600
2024-04-18T07:49:49.005Z,955.3800
2024-04-18T07:50:54.181Z,955.3900
2024-04-18T07:51:57.874Z,955.4000
2024-04-18T07:53:09.224Z,955.4300
2024-04-18T07:54:10.952Z,955.4400
2024-04-18T07:55:15.206Z,955.4500
2024-04-18T07:56:19.163Z,955.4700
2024-04-18T07:57:24.315Z,955.4900
2024-04-18T07:58:28.751Z,955.5200
2024-04-18T07:59:33.255Z,955.5300
2024-04-18T08:00:38.210Z,955.5600
2024-04-18T08:01:43.929Z,955.5700
2024-04-18T08:02:50.983Z,955.5800
2024-04-18T08:04:08.059Z,955.6000
2024-04-18T08:05:07.272Z,955.6200
2024-04-18T08:06:14.214Z,955.6200
2024-04-18T08:07:22.323Z,955.6500
2024-04-18T08:08:30.867Z,955.6600
2024-04-18T08:09:40.170Z,955.6600
2024-04-18T08:11:01.019Z,955.6800
2024-04-18T08:12:22.573Z,955.6900
2024-04-18T08:13:08.170Z,955.7100
2024-04-18T08:14:17.301Z,955.7300
2024-04-18T08:16:34.258Z,955.7600
2024-04-18T08:17:38.093Z,955.7900
2024-04-18T08:18:41.856Z,955.8100
2024-04-18T08:19:45.531Z,955.8200
2024-04-18T08:20:49.243Z,955.8300
2024-04-18T08:21:52.824Z,955.8400
2024-04-18T08:22:56.459Z,955.8500
2024-04-18T08:24:00.227Z,955.8600
2024-04-18T08:25:03.922Z,955.8800
2024-04-18T08:26:07.488Z,955.9000
2024-04-18T08:27:11.204Z,955.9100
2024-04-18T08:28:14.868Z,955.9200
2024-04-18T08:29:18.444Z,955.9400
2024-04-18T08:30:22.165Z,955.9600
2024-04-18T08:31:25.839Z,955.9800
2024-04-18T08:32:29.659Z,956.0100
2024-04-18T08:33:33.342Z,956.0200
2024-04-18T08:34:39.381Z,956.0400
2024-04-18T08:35:44.946Z,956.0500
2024-04-18T08:36:48.701Z,956.0600
2024-04-18T08:37:52.404Z,956.0600
2024-04-18T08:38:55.980Z,956.0700
2024-04-18T08:39:59.643Z,956.0700
2024-04-18T08:41:03.194Z,956.0800
2024-04-18T08:42:07.734Z,956.0900
2024-04-18T08:43:11.926Z,956.1000
2024-04-18T08:44:15.507Z,956.1000
2024-04-18T08:45:19.201Z,956.1100
2024-04-18T08:46:22.910Z,956.1300
2024-04-18T08:47:26.680Z,956.1500
2024-04-18T08:48:30.684Z,956.1600
2024-04-18T08:49:34.445Z,956.1700
2024-04-18T08:50:38.438Z,956.1900
2024-04-18T08:51:42.166Z,956.2000
2024-04-18T08:52:45.839Z,956.2200
2024-04-18T08:53:49.594Z,956.2300
2024-04-18T08:54:53.342Z,956.2400
2024-04-18T08:55:57.116Z,956.2600
2024-04-18T08:57:00.809Z,956.2800
2024-04-18T08:58:05.424Z,956.3000
2024-04-18T08:59:09.772Z,956.3100
2024-04-18T09:00:14.373Z,956.3200
2024-04-18T09:01:18.924Z,956.3400
2024-04-18T09:02:22.638Z,956.3700
2024-04-18T09:03:26.270Z,956.3800
2024-04-18T09:04:29.918Z,956.4000
2024-04-18T09:05:34.330Z,956.4100
2024-04-18T09:06:39.014Z,956.4400
2024-04-18T09:07:42.598Z,956.4500
2024-04-18T09:08:46.194Z,956.4600
2024-04-18T09:09:49.776Z,956.4700
2024-04-18T09:10:53.857Z,956.4700
2024-04-18T09:11:57.560Z,956.4700
2024-04-18T09:13:04.275Z,956.4800
2024-04-18T09:14:10.819Z,956.4900
2024-04-18T09:15:29.357Z,956.4900
2024-04-18T09:16:33.182Z,956.5100
2024-04-18T09:17:36.970Z,956.5200
2024-04-18T09:18:41.574Z,956.5200
2024-04-18T09:19:45.264Z,956.5300
2024-04-18T09:20:48.995Z,956.5300
2024-04-18T09:21:52.573Z,956.5600
2024-04-18T09:22:56.270Z,956.5500
2024-04-18T09:23:59.887Z,956.5600
2024-04-18T09:25:03.564Z,956.5600
2024-04-18T09:26:08.757Z,956.5600
2024-04-18T09:27:13.524Z,956.5700
2024-04-18T09:28:17.220Z,956.5800
2024-04-18T09:29:20.875Z,956.5800
2024-04-18T09:30:24.642Z,956.6000
2024-04-18T09:31:35.210Z,956.6200
2024-04-18T09:32:38.028Z,956.6400
2024-04-18T09:33:42.046Z,956.6500
2024-04-18T09:34:45.926Z,956.6600
2024-04-18T09:35:49.613Z,956.6900
2024-04-18T09:36:53.968Z,956.7100
2024-04-18T09:38:04.537Z,956.7300
2024-04-18T09:39:07.145Z,956.7600
2024-04-18T09:40:10.818Z,956.7700
2024-04-18T09:41:14.455Z,956.7800
2024-04-18T09:42:18.106Z,956.7900
2024-04-18T09:43:21.832Z,956.8000
2024-04-18T09:44:30.109Z,956.8200
2024-04-18T09:45:33.877Z,956.8200
2024-04-18T09:46:37.611Z,956.8200
2024-04-18T09:47:41.291Z,956.8300
2024-04-18T09:48:45.150Z,956.8400
2024-04-18T09:49:50.975Z,956.8200
2024-04-18T09:50:55.357Z,956.8200
2024-04-18T09:51:59.424Z,956.8300
2024-04-18T09:53:03.780Z,956.8400
2024-04-18T09:54:07.505Z,956.8500
2024-04-18T09:55:12.268Z,956.8800
2024-04-18T09:56:15.944Z,956.8800
2024-04-18T09:57:19.912Z,956.9000
2024-04-18T09:58:23.660Z,956.9000
2024-04-18T09:59:27.296Z,956.9100
2024-04-18T10:00:31.232Z,956.9200
2024-04-18T10:01:34.972Z,956.9400
2024-04-18T10:02:39.223Z,956.9400
2024-04-18T10:03:42.947Z,956.9300
2024-04-18T10:04:46.685Z,956.9400
2024-04-18T10:05:51.205Z,956.9500
2024-04-18T10:06:54.924Z,956.9500
2024-04-18T10:08:01.136Z,956.9600
2024-04-18T10:09:04.983Z,956.9700
2024-04-18T10:10:08.610Z,956.9800
2024-04-18T10:11:12.297Z,957.0000
2024-04-18T10:12:16.028Z,957.0000
2024-04-18T10:13:21.315Z,957.0200
2024-04-18T10:14:26.438Z,957.0200
2024-04-18T10:15:30.187Z,957.0300
2024-04-18T10:16:33.858Z,957.0300
2024-04-18T10:17:38.051Z,957.0300
2024-04-18T10:18:41.933Z,957.0400
2024-04-18T10:19:45.876Z,957.0500
2024-04-18T10:20:50.303Z,957.0600
2024-04-18T10:22:06.358Z,957.0800
2024-04-18T10:23:09.571Z,957.0900
2024-04-18T10:24:13.458Z,957.1000
2024-04-18T10:25:17.249Z,957.1100
2024-04-18T10:26:20.935Z,957.1100
2024-04-18T10:27:24.747Z,957.1100
2024-04-18T10:28:28.386Z,957.1400
2024-04-18T10:29:32.894Z,957.1500
2024-04-18T10:30:36.636Z,957.1700
2024-04-18T10:31:40.201Z,957.1800
2024-04-18T10:32:43.862Z,957.1900
2024-04-18T10:33:47.572Z,957.2000
2024-04-18T10:34:51.164Z,957.1900
2024-04-18T10:35:54.785Z,957.2200
2024-04-18T10:36:58.372Z,957.2300
2024-04-18T10:38:01.954Z,957.2500
2024-04-18T10:39:05.705Z,957.2500
2024-04-18T10:40:09.234Z,957.2800
2024-04-18T10:41:12.825Z,957.2800
2024-04-18T10:42:16.504Z,957.2700
2024-04-18T10:43:20.883Z,957.2900
2024-04-18T10:44:24.705Z,957.2800
2024-04-18T10:45:28.474Z,957.2800
2024-04-18T10:46:32.192Z,957.2800
2024-04-18T10:47:35.994Z,957.2900
2024-04-18T10:48:39.727Z,957.3000
2024-04-18T10:49:43.406Z,957.3100
2024-04-18T10:50:46.959Z,957.3000
2024-04-18T10:51:50.691Z,957.3000
2024-04-18T10:52:54.822Z,957.3200
2024-04-18T10:53:58.502Z,957.3400
2024-04-18T10:55:02.787Z,957.3400
2024-04-18T10:56:09.333Z,957.3400
2024-04-18T10:57:13.066Z,957.3300
2024-04-18T10:58:17.834Z,957.3500
2024-04-18T10:59:21.554Z,957.3700
2024-04-18T11:00:31.989Z,957.3600
2024-04-18T11:01:36.019Z,957.3600
2024-04-18T11:02:40.209Z,957.3800
2024-04-18T11:03:44.765Z,957.3900
2024-04-18T11:04:48.332Z,957.3800
2024-04-18T11:05:51.980Z,957.3700
2024-04-18T11:06:55.735Z,957.3600
2024-04-18T11:07:59.565Z,957.3700
2024-04-18T11:09:03.257Z,957.3600
2024-04-18T11:10:06.911Z,957.3500
2024-04-18T11:11:10.483Z,957.3500
2024-04-18T11:12:14.116Z,957.3600
2024-04-18T11:13:18.423Z,957.3600
2024-04-18T11:14:22.795Z,957.3700
2024-04-18T11:15:26.527Z,957.3900
2024-04-18T11:16:30.201Z,957.3800
2024-04-18T11:17:33.933Z,957.3900
2024-04-18T11:18:37.735Z,957.4100
2024-04-18T11:19:41.505Z,957.4200
2024-04-18T11:20:45.237Z,957.4500
2024-04-18T11:21:48.910Z,957.4400
2024-04-18T11:22:57.414Z,957.4500
2024-04-18T11:24:02.256Z,957.4700
2024-04-18T11:25:06.090Z,957.4800
2024-04-18T11:26:09.691Z,957.4900
2024-04-18T11:27:13.566Z,957.5000
2024-04-18T11:28:17.259Z,957.5100
2024-04-18T11:29:21.131Z,957.5100
2024-04-18T11:30:24.681Z,957.5200
2024-04-18T11:31:28.298Z,957.5400
2024-04-18T11:32:33.496Z,957.5600
2024-04-18T11:33:37.441Z,957.5900
2024-04-18T11:34:41.054Z,957.6200
2024-04-18T11:35:44.674Z,957.6300
2024-04-18T11:36:48.319Z,957.6400
2024-04-18T11:37:52.112Z,957.6600
2024-04-18T11:38:56.886Z,957.6800
2024-04-18T11:40:01.376Z,957.6800
2024-04-18T11:41:05.099Z,957.6800
2024-04-18T11:42:08.795Z,957.7000
2024-04-18T11:43:13.332Z,957.7100
2024-04-18T11:44:17.078Z,957.7100
2024-04-18T11:45:21.071Z,957.7500
2024-04-18T11:46:24.766Z,957.7600
2024-04-18T11:47:28.591Z,957.7700
2024-04-18T11:48:32.568Z,957.7900
2024-04-18T11:49:38.220Z,957.8100
2024-04-18T11:50:42.795Z,957.8400
2024-04-18T11:51:46.590Z,957.8300
2024-04-18T11:52:50.289Z,957.8400
2024-04-18T11:53:54.062Z,957.8700
2024-04-18T11:54:58.238Z,957.8700
2024-04-18T11:56:04.272Z,957.8800
2024-04-18T11:57:08.839Z,957.8800
2024-04-18T11:58:14.446Z,957.9000
2024-04-18T11:59:18.452Z,957.9100
2024-04-18T12:00:22.151Z,957.9100
2024-04-18T12:01:25.906Z,957.9200
2024-04-18T12:02:30.321Z,957.9000
2024-04-18T12:03:34.033Z,957.9100
2024-04-18T12:04:39.218Z,957.9000
2024-04-18T12:05:44.253Z,957.9000
2024-04-18T12:06:47.942Z,957.9100
2024-04-18T12:07:51.638Z,957.9000
2024-04-18T12:08:55.974Z,957.8800
2024-04-18T12:10:00.381Z,957.8900
2024-04-18T12:11:04.194Z,957.9100
2024-04-18T12:12:07.967Z,957.9200
2024-04-18T12:13:11.770Z,957.9200
2024-04-18T12:14:15.490Z,957.9400
2024-04-18T12:15:19.300Z,957.9400
2024-04-18T12:16:23.117Z,957.9600
2024-04-18T12:17:26.886Z,957.9800
2024-04-18T12:18:30.610Z,958.0000
2024-04-18T12:19:34.144Z,958.0000
2024-04-18T12:21:07.303Z,957.9600
2024-04-18T12:22:11.055Z,957.9600
2024-04-18T12:23:14.877Z,957.9700
2024-04-18T12:24:18.555Z,957.9800
2024-04-18T12:25:22.925Z,957.9800
2024-04-18T12:26:26.496Z,957.9800
2024-04-18T12:27:30.160Z,957.9900
2024-04-18T12:28:33.749Z,957.9900
2024-04-18T12:29:37.458Z,958.0100
2024-04-18T12:30:41.056Z,958.0200
2024-04-18T12:31:44.714Z,958.0300
2024-04-18T12:32:48.403Z,958.0500
2024-04-18T12:33:52.085Z,958.0600